This is the latest recevied weather packets stored in our database for station/object EA5LU-10. If no packets are shown the sender has not sent any weather packets the latest 10 day(s).
| Time | Temp. | Humidity | Pressure | Rain* | Wind** | Luminosity | Snow |
|---|---|---|---|---|---|---|---|
| 1777740701 | 24.44° C | 55% | 1007 hPa | - | - | - | - |
| 1777739800 | 26.11° C | 52% | 1007.1 hPa | - | - | - | - |
| 1777738900 | 27.22° C | 50% | 1007.2 hPa | - | - | - | - |
| 1777737999 | 26.11° C | 52% | 1007.7 hPa | - | - | - | - |
| 1777737098 | 26.11° C | 52% | 1007.6 hPa | - | - | - | - |
| 1777736197 | 26.11° C | 52% | 1007.7 hPa | - | - | - | - |
| 1777735296 | 26.11° C | 51% | 1008 hPa | - | - | - | - |
| 1777734395 | 26.67° C | 50% | 1008.2 hPa | - | - | - | - |
| 1777733494 | 26.67° C | 50% | 1008.5 hPa | - | - | - | - |
| 1777732594 | 25.56° C | 53% | 1008.8 hPa | - | - | - | - |
| 1777731693 | 26.11° C | 52% | 1008.9 hPa | - | - | - | - |
| 1777730792 | 25.56° C | 54% | 1009 hPa | - | - | - | - |
| 1777729891 | 26.11° C | 53% | 1009.3 hPa | - | - | - | - |
| 1777728990 | 26.11° C | 52% | 1009.4 hPa | - | - | - | - |
| 1777728090 | 26.11° C | 53% | 1009.5 hPa | - | - | - | - |
| 1777727189 | 26.11° C | 57% | 1009.6 hPa | - | - | - | - |
| 1777726288 | 24.44° C | 63% | 1009.7 hPa | - | - | - | - |
| 1777725387 | 24.44° C | 63% | 1010 hPa | - | - | - | - |
| 1777724486 | 23.89° C | 64% | 1010 hPa | - | - | - | - |
| 1777723585 | 23.89° C | 64% | 1010 hPa | - | - | - | - |
| 1777722685 | 23.89° C | 63% | 1010.4 hPa | - | - | - | - |
| 1777721784 | 24.44° C | 56% | 1010.4 hPa | - | - | - | - |
| 1777720883 | 24.44° C | 56% | 1010.5 hPa | - | - | - | - |
| 1777719982 | 25.56° C | 54% | 1010.6 hPa | - | - | - | - |
| 1777719081 | 25.56° C | 55% | 1010.7 hPa | - | - | - | - |
* Rain since midnight (hover to see other rain measurements)
** Current wind speed in m/s (hover to see current wind gust speed)